Airfield :
LOGIN :

Register | Disclaimer

   EN    FR    IT 

 










Legend :    VFR   Marginal VFR   IFR   Intensive IFR   Very Intensive IFR
Visi :
Ceiling :
>= 8 km
>= 3000ft
5 to 8 km
1000 to 3000 ft
1500m to 5 km
500 to 1000 ft
800 to 1500m
200 to 500 ft
< 800m
< 200 ft
Symbols :   Thunderstorms  Fog  Heavy snow  Heavy precipitations  Wind > 20 kt
SIGMETs :     Misc.  Thunderstorms  Icing  Turbulence  Mountain Waves  Volcanic Ashes






- Airport Elevation : 336 ft
- IATA code : GCI


EGJB - Guernsey

CURRENT METAR :
  • 071620Z 25015KT 9999 FEW010 16/13 Q1020

EXPIRED METARs :
  • 071550Z 26016KT 9999 FEW011 16/13 Q1020
  • 071520Z 25017KT 9999 SCT011 16/13 Q1021
  • 071450Z 25017KT 9999 SCT011 16/13 Q1021
  • 071420Z 25016KT 9999 SCT011 16/13 Q1021
  • 071350Z 25018KT 9999 SCT011 16/13 Q1021

TAF TAF EGJB
Valid from the 07 at 15:00 until the 08 at 00:00 UTC


071354Z 0715/0800 24018KT 9999 SCT012
PROB40
TEMPO 0719/0721 9000 SHRA BKN010TCU
BECMG 0720/0722 31013KT
ATIS : +44 1481 238 957



MET'MAP, your aeronautical weather chart ! - Copyright ORBIFLY December 2007 - Disclaimer

ORBIFLY MET'MAP TEAM :

Programming & Development : Alexandra Zaïnal
Original concept : Baudouin d'Aumeries
Technical & hardware support : Manuel Goepfert
Assistance : Marc-Olivier Méhu




SOURCES & CREDITS :

   NOAA